Time;durP1;ratioP1;P1;durP2;ratioP2;P2;SDS_P1;SDS_P2;PMS_P1;PMS_P2;Temp;Humidity;BMP_temperature;BMP_pressure;BME280_temperature;BME280_humidity;BME280_pressure;Samples;Min_cycle;Max_cycle;Signal;HPM_P1;HPM_P2
2022/10/09 00:01:22;;;;;;;14.80;8.60;;;;;;;8.71;75.66;99921.33;106761;1302;22169;-45
2022/10/09 00:03:49;;;;;;;21.00;12.50;;;;;;;8.66;75.77;99923.64;106731;1302;22099;-46
2022/10/09 00:06:21;;;;;;;23.90;12.20;;;;;;;8.59;75.85;99925.17;106776;1288;22212;-45
2022/10/09 00:08:48;;;;;;;19.70;12.50;;;;;;;8.52;75.87;99920.98;106664;1300;140495;-45
2022/10/09 00:11:19;;;;;;;23.60;15.20;;;;;;;8.45;76.15;99918.60;106849;1303;22310;-45
2022/10/09 00:13:46;;;;;;;23.70;12.80;;;;;;;8.41;76.29;99916.58;106695;1295;138686;-45
2022/10/09 00:16:13;;;;;;;24.90;14.10;;;;;;;8.37;76.40;99916.52;106844;1303;22228;-45
2022/10/09 00:18:40;;;;;;;26.20;15.70;;;;;;;8.32;76.63;99914.08;106846;1303;23526;-45
2022/10/09 00:21:33;;;;;;;27.00;12.80;;;;;;;8.28;76.61;99910.57;106701;1302;138191;-45
2022/10/09 00:24:01;;;;;;;17.90;11.60;;;;;;;8.24;76.97;99905.79;106747;1295;22192;-45
2022/10/09 00:26:28;;;;;;;19.00;11.30;;;;;;;8.20;77.22;99900.79;106633;1289;138590;-45
2022/10/09 00:28:54;;;;;;;19.70;11.40;;;;;;;8.18;77.35;99895.88;106729;1302;22252;-45
2022/10/09 00:31:21;;;;;;;;;;;;;;;8.15;77.51;99890.65;106716;1294;22366;-45
2022/10/09 00:33:48;;;;;;;18.70;10.50;;;;;;;8.13;77.69;99886.92;106784;1302;22111;-45
2022/10/09 00:36:17;;;;;;;17.20;11.40;;;;;;;8.11;77.68;99887.29;106764;1296;22210;-45
2022/10/09 00:38:44;;;;;;;27.30;17.20;;;;;;;8.08;77.81;99887.34;106716;1302;138248;-45
2022/10/09 00:41:19;;;;;;;39.50;23.60;;;;;;;8.05;77.89;99893.66;103002;1288;24677;-46
2022/10/09 00:43:49;;;;;;;31.40;20.70;;;;;;;8.01;77.82;99891.88;102335;1310;140223;-47
2022/10/09 00:46:27;;;;;;;41.70;27.70;;;;;;;7.96;77.92;99889.11;102306;1286;22527;-46
2022/10/09 00:49:22;;;;;;;45.30;30.60;;;;;;;7.91;78.22;99886.90;102255;1285;24395;-46
2022/10/09 00:51:49;;;;;;;41.10;27.60;;;;;;;7.84;78.31;99877.37;102229;1286;138999;-47
2022/10/09 00:54:16;;;;;;;;;;;;;;;7.84;78.41;99879.54;102300;1302;22578;-46
2022/10/09 00:56:43;;;;;;;37.30;21.40;;;;;;;7.79;78.59;99879.27;102317;1286;124848;-46
2022/10/09 00:59:10;;;;;;;39.50;23.80;;;;;;;7.75;78.85;99875.63;102223;1295;22473;-47
2022/10/09 01:01:38;;;;;;;37.00;24.90;;;;;;;7.72;78.89;99879.00;102155;1300;138834;-47
2022/10/09 01:04:05;;;;;;;38.40;24.20;;;;;;;7.65;78.79;99871.89;102223;1310;25367;-47
2022/10/09 01:06:52;;;;;;;35.00;23.80;;;;;;;7.60;78.87;99872.95;102431;1293;24523;-46
2022/10/09 01:09:22;;;;;;;31.30;23.50;;;;;;;7.55;79.19;99869.70;102152;1303;139225;-46
2022/10/09 01:11:49;;;;;;;30.80;19.60;;;;;;;7.50;79.44;99869.58;106611;1310;22138;-47
2022/10/09 01:14:16;;;;;;;28.90;19.00;;;;;;;7.48;79.48;99866.92;106686;1302;139109;-47
2022/10/09 01:16:46;;;;;;;24.10;17.20;;;;;;;7.41;79.35;99865.27;106872;1285;22120;-47
2022/10/09 01:19:40;;;;;;;20.80;15.00;;;;;;;7.34;79.46;99866.71;106763;1302;22210;-47
2022/10/09 01:22:22;;;;;;;22.40;13.50;;;;;;;7.29;79.79;99862.98;106657;1302;22109;-47
2022/10/09 01:25:35;;;;;;;18.60;12.90;;;;;;;7.23;79.88;99862.64;106858;1303;22283;-47
2022/10/09 01:28:02;;;;;;;18.50;13.00;;;;;;;7.21;80.08;99862.48;106367;1306;23072;-47
2022/10/09 01:30:28;;;;;;;17.80;12.00;;;;;;;7.18;80.25;99865.55;106345;1306;22855;-47
2022/10/09 01:32:55;;;;;;;17.80;12.40;;;;;;;7.16;80.35;99867.11;106282;1306;138784;-46
2022/10/09 01:35:22;;;;;;;18.20;11.30;;;;;;;7.14;80.56;99863.52;106345;1308;22231;-46
2022/10/09 01:37:49;;;;;;;18.30;11.30;;;;;;;7.17;80.69;99866.27;106046;1306;140652;-46
2022/10/09 01:40:16;;;;;;;21.10;11.30;;;;;;;7.16;80.63;99865.48;106281;1306;23581;-46
2022/10/09 01:42:42;;;;;;;21.40;10.10;;;;;;;7.16;80.62;99868.73;106307;1307;22265;-46
2022/10/09 01:45:09;;;;;;;;;;;;;;;7.17;80.58;99870.32;106261;1306;140271;-47
2022/10/09 01:47:36;;;;;;;18.10;10.20;;;;;;;7.16;80.58;99869.11;106371;1301;23027;-46
2022/10/09 01:50:05;;;;;;;;;;;;;;;7.15;80.60;99867.13;106129;1307;140672;-46
2022/10/09 01:52:37;;;;;;;14.10;9.60;;;;;;;7.13;80.87;99865.60;106399;1306;22610;-46
2022/10/09 01:55:09;;;;;;;14.80;10.10;;;;;;;7.12;80.90;99859.53;106400;1307;22167;-46
2022/10/09 01:57:44;;;;;;;17.50;9.70;;;;;;;7.11;81.03;99862.88;106255;1308;139014;-46
2022/10/09 02:00:11;;;;;;;15.80;9.30;;;;;;;7.07;80.96;99863.34;106411;1309;22326;-46
2022/10/09 02:02:38;;;;;;;;;;;;;;;7.03;80.87;99859.98;106305;1308;138095;-46
2022/10/09 02:05:05;;;;;;;14.30;8.70;;;;;;;6.98;80.87;99860.40;106598;1302;22237;-46
2022/10/09 02:07:32;;;;;;;13.50;9.40;;;;;;;6.95;80.98;99864.69;106591;1303;138603;-46
2022/10/09 02:09:59;;;;;;;14.90;9.00;;;;;;;6.93;80.81;99863.92;106666;1303;22297;-46
2022/10/09 02:12:26;;;;;;;16.40;9.30;;;;;;;6.89;80.89;99864.98;106755;1302;23291;-45
2022/10/09 02:14:53;;;;;;;15.60;8.90;;;;;;;6.88;81.10;99862.45;106651;1303;139343;-46
2022/10/09 02:17:26;;;;;;;14.00;9.70;;;;;;;6.85;80.84;99857.42;106699;1302;22196;-45
2022/10/09 02:19:59;;;;;;;15.40;7.80;;;;;;;6.83;81.24;99855.08;106544;1297;139312;-45
2022/10/09 02:22:27;;;;;;;12.50;8.20;;;;;;;6.82;81.23;99855.52;106670;1303;22851;-45
2022/10/09 02:24:56;;;;;;;11.20;8.10;;;;;;;6.79;81.28;99855.45;106022;1303;970194;-46
2022/10/09 02:29:15;;;;;;;10.80;7.70;;;;;;;6.76;81.34;99852.61;99508;1331;545017;-45
2022/10/09 02:31:42;;;;;;;10.40;7.00;;;;;;;6.71;81.25;99853.75;101094;1298;138549;-46
2022/10/09 02:34:10;;;;;;;;;;;;;;;6.69;81.57;99853.69;101088;1301;22712;-44
2022/10/09 02:36:37;;;;;;;;;;;;;;;6.67;81.47;99849.50;105752;1301;23224;-45
2022/10/09 02:39:05;;;;;;;13.60;7.50;;;;;;;6.63;81.29;99847.13;105548;1315;124573;-45
2022/10/09 02:41:32;;;;;;;10.90;7.60;;;;;;;6.61;81.54;99851.73;105645;1310;22168;-45
2022/10/09 02:43:59;;;;;;;;;;;;;;;6.62;81.67;99852.11;105129;1313;940808;-44
2022/10/09 02:46:26;;;;;;;11.40;7.20;;;;;;;6.62;81.95;99851.48;105918;1313;22951;-45
2022/10/09 02:48:52;;;;;;;;;;;;;;;6.63;81.99;99849.61;105969;1315;22381;-45
2022/10/09 02:51:19;;;;;;;9.40;6.70;;;;;;;6.63;81.93;99845.27;105945;1312;123740;-44
2022/10/09 02:53:46;;;;;;;14.50;8.20;;;;;;;6.61;82.05;99840.73;106075;1312;22289;-45
2022/10/09 02:56:13;;;;;;;11.50;6.90;;;;;;;6.63;82.17;99837.86;105806;1315;138962;-45
2022/10/09 02:58:39;;;;;;;;;;;;;;;6.64;82.43;99840.21;105887;1313;23995;-45
2022/10/09 03:01:07;;;;;;;13.40;7.60;;;;;;;6.64;82.35;99839.99;105871;1315;21944;-45
2022/10/09 03:03:34;;;;;;;;;;;;;;;6.64;82.58;99840.52;105765;1313;137683;-45
2022/10/09 03:06:05;;;;;;;15.30;7.60;;;;;;;6.64;82.42;99836.41;105872;1313;22137;-44
2022/10/09 03:08:31;;;;;;;14.40;7.10;;;;;;;6.64;82.53;99836.21;105758;1303;138198;-45
2022/10/09 03:10:58;;;;;;;10.80;7.10;;;;;;;6.62;82.53;99831.58;105870;1315;23076;-45
2022/10/09 03:13:25;;;;;;;15.30;8.30;;;;;;;6.63;82.65;99831.44;105848;1314;22356;-44
2022/10/09 03:15:51;;;;;;;12.60;8.10;;;;;;;6.64;82.92;99828.58;105744;1315;140128;-44
2022/10/09 03:18:18;;;;;;;14.70;8.50;;;;;;;6.66;82.97;99825.55;105850;1315;22113;-44
2022/10/09 03:20:45;;;;;;;14.80;7.80;;;;;;;6.68;82.90;99823.98;105722;1315;137881;-44
2022/10/09 03:23:12;;;;;;;14.10;8.70;;;;;;;6.67;82.39;99822.00;105866;1315;22166;-44
2022/10/09 03:25:38;;;;;;;13.40;8.00;;;;;;;6.64;82.15;99823.54;105771;1315;138861;-45
2022/10/09 03:28:05;;;;;;;14.50;8.80;;;;;;;6.60;82.08;99821.27;105772;1300;22388;-44
2022/10/09 03:30:32;;;;;;;13.10;9.40;;;;;;;6.57;81.88;99822.96;105827;1315;22123;-44
2022/10/09 03:32:58;;;;;;;18.70;9.80;;;;;;;6.54;82.18;99817.77;105742;1304;138933;-44
2022/10/09 03:35:25;;;;;;;;;;;;;;;6.54;81.99;99819.77;105787;1297;22552;-44
2022/10/09 03:37:52;;;;;;;19.10;10.10;;;;;;;6.53;81.96;99820.29;105682;1305;125422;-44
2022/10/09 03:40:18;;;;;;;15.90;10.20;;;;;;;6.52;82.17;99818.50;105776;1300;22225;-44
2022/10/09 03:42:45;;;;;;;17.20;11.10;;;;;;;6.52;82.28;99816.84;105864;1299;22594;-45
2022/10/09 03:45:13;;;;;;;15.40;9.50;;;;;;;6.52;82.36;99813.05;105655;1313;139058;-45
2022/10/09 03:47:39;;;;;;;15.80;9.80;;;;;;;6.52;81.99;99812.27;105851;1312;22450;-44
2022/10/09 03:50:06;;;;;;;14.90;9.70;;;;;;;6.49;82.07;99816.42;105658;1293;137913;-44
2022/10/09 03:52:35;;;;;;;17.50;10.60;;;;;;;6.47;81.97;99810.79;105833;1308;22226;-44
2022/10/09 03:55:02;;;;;;;17.60;11.80;;;;;;;6.46;82.14;99807.09;105811;1307;22292;-44
2022/10/09 03:57:28;;;;;;;23.40;12.50;;;;;;;6.47;82.02;99809.75;105746;1307;138265;-44
2022/10/09 03:59:55;;;;;;;17.80;11.00;;;;;;;6.43;81.89;99806.98;105826;1300;22292;-44
2022/10/09 04:02:22;;;;;;;18.40;10.90;;;;;;;6.38;81.57;99806.98;105634;1315;139732;-44
2022/10/09 04:04:48;;;;;;;17.20;11.70;;;;;;;6.35;81.87;99809.05;105789;1300;22158;-44
2022/10/09 04:07:15;;;;;;;19.50;13.70;;;;;;;6.33;81.85;99810.64;105837;1315;22197;-44
2022/10/09 04:09:42;;;;;;;17.40;12.80;;;;;;;6.33;81.92;99809.98;105641;1314;139488;-44
2022/10/09 04:12:09;;;;;;;21.20;12.70;;;;;;;6.32;81.94;99814.19;105837;1308;22158;-44
2022/10/09 04:14:35;;;;;;;;;;;;;;;6.30;82.23;99813.45;105740;1307;138205;-44
2022/10/09 04:17:02;;;;;;;22.90;13.30;;;;;;;6.26;82.21;99812.52;105815;1314;22305;-44
2022/10/09 04:19:29;;;;;;;20.30;13.50;;;;;;;6.25;82.45;99809.24;105795;1305;22604;-44
2022/10/09 04:21:55;;;;;;;;;;;;;;;6.27;82.63;99813.18;105855;1315;22363;-44
2022/10/09 04:24:22;;;;;;;19.90;11.40;;;;;;;6.27;82.56;99810.61;105852;1315;22142;-44
2022/10/09 04:26:49;;;;;;;18.70;11.70;;;;;;;6.25;82.57;99808.48;105725;1315;138711;-44
2022/10/09 04:29:15;;;;;;;23.40;12.80;;;;;;;6.24;82.40;99806.20;105819;1315;22162;-44
2022/10/09 04:31:42;;;;;;;19.60;13.20;;;;;;;6.23;82.53;99805.77;105712;1315;138270;-45
2022/10/09 04:34:09;;;;;;;;;;;;;;;6.23;82.35;99805.85;105846;1315;22353;-43
2022/10/09 04:36:35;;;;;;;28.70;17.20;;;;;;;6.23;82.72;99803.10;105832;1308;23437;-45
2022/10/09 04:39:04;;;;;;;31.60;16.20;;;;;;;6.24;82.66;99804.00;105776;1315;138978;-45
2022/10/09 04:41:45;;;;;;;29.60;16.10;;;;;;;6.25;82.93;99804.37;105839;1315;22208;-45
2022/10/09 04:44:11;;;;;;;24.50;15.30;;;;;;;6.25;82.80;99806.74;105746;1315;138718;-45
2022/10/09 04:46:38;;;;;;;;;;;;;;;6.25;82.88;99806.95;105844;1314;22428;-45
2022/10/09 04:49:05;;;;;;;23.50;14.00;;;;;;;6.24;82.94;99808.38;105846;1314;22203;-46
2022/10/09 04:51:31;;;;;;;25.00;14.30;;;;;;;6.25;83.47;99813.79;105722;1315;139068;-45
2022/10/09 04:53:58;;;;;;;23.40;14.80;;;;;;;6.27;83.99;99816.67;105873;1315;22137;-45
2022/10/09 04:56:26;;;;;;;23.60;15.10;;;;;;;6.32;84.23;99820.34;105747;1315;138555;-45
2022/10/09 04:58:53;;;;;;;21.70;15.70;;;;;;;6.37;84.26;99822.61;105880;1313;22128;-45
2022/10/09 05:01:24;;;;;;;22.40;15.40;;;;;;;6.44;84.60;99827.77;105850;1315;22132;-45
2022/10/09 05:03:51;;;;;;;22.20;14.40;;;;;;;6.52;85.15;99830.09;105556;1315;139489;-45
2022/10/09 05:06:18;;;;;;;21.20;14.60;;;;;;;6.60;85.54;99829.17;105732;1315;23321;-45
2022/10/09 05:08:45;;;;;;;24.10;15.20;;;;;;;6.70;86.13;99825.95;105720;1315;140586;-45
2022/10/09 05:11:16;;;;;;;19.60;13.70;;;;;;;6.81;86.61;99825.27;105791;1315;22214;-45
2022/10/09 05:13:48;;;;;;;23.70;14.40;;;;;;;6.88;86.87;99818.61;105739;1315;138959;-45
2022/10/09 05:16:16;;;;;;;22.00;13.10;;;;;;;7.00;87.15;99820.63;105832;1304;22166;-45
2022/10/09 05:18:48;;;;;;;20.00;13.00;;;;;;;7.10;87.54;99815.79;105860;1315;22911;-45
2022/10/09 05:21:15;;;;;;;22.70;13.50;;;;;;;7.21;87.87;99812.40;105729;1307;138196;-45
2022/10/09 05:23:42;;;;;;;;;;;;;;;7.32;88.21;99816.01;105866;1315;22329;-45
2022/10/09 05:26:13;;;;;;;18.50;12.00;;;;;;;7.42;88.55;99816.55;105690;1308;125240;-45
2022/10/09 05:28:40;;;;;;;18.90;11.30;;;;;;;7.54;88.88;99815.84;105776;1315;22338;-45
2022/10/09 05:31:06;;;;;;;;;;;;;;;7.66;89.16;99815.13;105850;1315;22523;-45
2022/10/09 05:33:33;;;;;;;18.50;12.20;;;;;;;7.79;89.41;99815.18;105748;1315;125095;-45
2022/10/09 05:36:01;;;;;;;;;;;;;;;7.91;89.75;99818.52;105854;1313;22443;-45
2022/10/09 05:38:27;;;;;;;23.70;12.90;;;;;;;8.02;90.17;99815.60;106363;1308;124728;-45
2022/10/09 05:40:55;;;;;;;;;;;;;;;8.18;90.27;99825.85;106429;1309;23120;-47
2022/10/09 05:43:30;;;;;;;22.90;14.30;;;;;;;8.31;90.44;99828.57;106459;1306;22173;-47
2022/10/09 05:46:23;;;;;;;23.10;15.10;;;;;;;8.44;90.37;99837.36;106460;1297;22141;-47
2022/10/09 05:48:57;;;;;;;27.30;15.90;;;;;;;8.59;89.99;99834.39;106446;1306;23493;-47
2022/10/09 05:51:25;;;;;;;34.30;18.70;;;;;;;8.71;89.45;99833.80;106311;1307;138805;-47
2022/10/09 05:53:52;;;;;;;28.60;16.90;;;;;;;8.82;88.99;99834.97;106465;1308;22200;-47
2022/10/09 05:56:20;;;;;;;;;;;;;;;8.93;88.49;99835.90;106327;1306;138690;-47
2022/10/09 05:58:51;;;;;;;30.80;17.50;;;;;;;9.03;88.07;99837.41;106440;1305;22148;-47
2022/10/09 06:01:18;;;;;;;27.60;18.00;;;;;;;9.11;87.87;99838.78;106442;1309;22217;-47
2022/10/09 06:03:53;;;;;;;32.30;19.40;;;;;;;9.19;87.39;99836.62;106307;1306;138716;-47
2022/10/09 06:06:21;;;;;;;27.60;16.30;;;;;;;9.26;86.98;99831.45;106464;1306;23007;-47
2022/10/09 06:08:48;;;;;;;33.50;14.60;;;;;;;9.37;86.95;99833.80;106326;1309;138046;-47
2022/10/09 06:11:21;;;;;;;17.00;12.00;;;;;;;9.45;86.34;99832.29;106454;1306;22878;-47
2022/10/09 06:13:48;;;;;;;16.30;10.00;;;;;;;9.54;86.20;99833.84;106343;1309;138319;-47
2022/10/09 06:16:16;;;;;;;16.60;10.10;;;;;;;9.62;85.92;99833.34;106480;1309;23020;-47
2022/10/09 06:18:45;;;;;;;19.00;10.00;;;;;;;9.70;85.47;99833.98;106464;1297;22957;-47
2022/10/09 06:21:15;;;;;;;15.10;10.40;;;;;;;9.78;85.32;99834.42;106372;1306;137875;-47
2022/10/09 06:23:41;;;;;;;14.00;9.60;;;;;;;9.87;85.04;99831.73;106472;1306;22633;-47
2022/10/09 06:26:09;;;;;;;;;;;;;;;9.94;84.40;99838.17;106368;1308;139597;-47
2022/10/09 06:28:36;;;;;;;15.70;9.80;;;;;;;10.03;84.00;99832.48;106457;1303;22836;-47
2022/10/09 06:31:07;;;;;;;15.70;10.30;;;;;;;10.11;83.75;99834.38;106448;1308;22225;-47
2022/10/09 06:33:35;;;;;;;13.80;8.80;;;;;;;10.19;83.46;99836.29;106323;1309;139276;-47
2022/10/09 06:36:03;;;;;;;15.40;9.00;;;;;;;10.28;83.33;99831.24;106436;1296;22221;-47
2022/10/09 06:38:36;;;;;;;15.30;9.10;;;;;;;10.38;82.93;99829.38;106346;1306;140217;-47
2022/10/09 06:41:22;;;;;;;14.40;9.10;;;;;;;10.47;82.67;99834.59;102789;1309;25403;-45
2022/10/09 06:43:50;;;;;;;17.30;10.10;;;;;;;10.58;82.31;99837.86;101751;1291;139310;-46
2022/10/09 06:46:17;;;;;;;18.00;9.60;;;;;;;10.67;81.96;99840.39;106469;1306;23272;-47
2022/10/09 06:48:44;;;;;;;19.70;8.80;;;;;;;10.75;81.60;99837.94;106459;1306;22333;-47
2022/10/09 06:51:16;;;;;;;14.70;9.20;;;;;;;10.84;81.38;99842.48;106349;1309;139827;-47
2022/10/09 06:53:50;;;;;;;16.80;9.20;;;;;;;10.93;81.01;99839.34;106443;1305;22497;-47
2022/10/09 06:56:17;;;;;;;17.70;8.90;;;;;;;11.03;80.54;99838.16;106325;1304;139250;-46
2022/10/09 06:58:44;;;;;;;19.70;9.20;;;;;;;11.13;80.03;99836.64;106472;1309;22232;-46
2022/10/09 07:01:13;;;;;;;14.50;9.50;;;;;;;11.22;79.78;99834.17;106481;1308;22109;-47
2022/10/09 07:03:41;;;;;;;14.90;9.30;;;;;;;11.34;79.41;99833.02;106301;1308;138420;-46
2022/10/09 07:06:09;;;;;;;19.60;9.60;;;;;;;11.44;79.36;99826.84;106454;1308;22132;-46
2022/10/09 07:08:37;;;;;;;85.40;51.60;;;;;;;11.53;78.73;99826.52;106362;1307;140092;-45
2022/10/09 07:11:23;;;;;;;83.30;45.50;;;;;;;11.63;78.26;99828.22;106421;1306;22113;-45
2022/10/09 07:13:58;;;;;;;27.30;15.10;;;;;;;11.75;77.82;99828.33;106381;1306;140684;-46
2022/10/09 07:16:27;;;;;;;22.90;11.80;;;;;;;11.85;77.69;99824.73;106442;1308;22158;-45
2022/10/09 07:18:54;;;;;;;22.00;10.00;;;;;;;11.96;77.38;99820.91;106468;1309;23090;-46
2022/10/09 07:21:21;;;;;;;19.40;9.60;;;;;;;12.07;77.19;99820.67;106328;1309;140398;-46
2022/10/09 07:23:48;;;;;;;17.30;9.70;;;;;;;12.17;76.80;99817.81;106438;1308;22163;-46
2022/10/09 07:26:18;;;;;;;;;;;;;;;12.27;76.21;99812.42;106356;1309;138654;-45
2022/10/09 07:28:45;;;;;;;13.50;8.70;;;;;;;12.37;75.65;99811.58;106472;1301;22171;-45
2022/10/09 07:31:12;;;;;;;15.50;8.70;;;;;;;12.44;74.91;99809.68;106452;1309;22221;-46
2022/10/09 07:33:40;;;;;;;20.80;9.30;;;;;;;12.50;74.49;99808.21;106364;1306;137650;-46
2022/10/09 07:36:07;;;;;;;17.20;8.20;;;;;;;12.56;74.31;99809.29;106461;1297;23447;-46
2022/10/09 07:38:34;;;;;;;17.50;9.60;;;;;;;12.64;73.92;99809.61;106380;1290;139051;-46
2022/10/09 07:41:11;;;;;;;18.90;9.00;;;;;;;12.71;73.56;99811.02;106478;1309;23121;-45
2022/10/09 07:43:38;;;;;;;17.90;8.90;;;;;;;12.79;73.22;99813.14;106324;1309;139419;-46
2022/10/09 07:46:05;;;;;;;139.80;95.30;;;;;;;12.85;72.97;99810.43;106435;1309;22106;-44
2022/10/09 07:48:33;;;;;;;84.00;51.80;;;;;;;12.92;72.74;99807.63;106484;1303;22369;-44
2022/10/09 07:51:10;;;;;;;32.70;18.70;;;;;;;13.01;72.55;99808.48;106613;1306;138413;-45
2022/10/09 07:53:37;;;;;;;19.50;10.80;;;;;;;13.09;72.44;99806.77;106702;1309;22324;-44
2022/10/09 07:56:04;;;;;;;16.90;9.10;;;;;;;13.17;72.16;99806.38;106614;1304;138438;-44
2022/10/09 07:58:31;;;;;;;17.00;8.90;;;;;;;13.23;71.48;99806.54;106718;1303;22192;-44
2022/10/09 08:01:05;;;;;;;15.60;8.60;;;;;;;13.30;71.34;99802.45;106737;1306;22298;-44
2022/10/09 08:03:33;;;;;;;14.90;8.30;;;;;;;13.37;71.13;99800.45;106619;1309;138823;-44
2022/10/09 08:05:59;;;;;;;19.50;8.60;;;;;;;13.43;70.80;99801.92;106735;1306;22186;-44
2022/10/09 08:08:26;;;;;;;;;;;;;;;13.49;71.12;99797.73;106670;1309;138331;-44
2022/10/09 08:10:53;;;;;;;14.40;6.80;;;;;;;13.56;71.20;99805.36;106680;1303;22146;-44
2022/10/09 08:13:19;;;;;;;13.10;8.00;;;;;;;13.61;70.64;99804.82;106725;1301;22300;-44
2022/10/09 08:15:46;;;;;;;13.50;7.70;;;;;;;13.68;70.08;99805.23;106564;1303;137339;-44
2022/10/09 08:18:13;;;;;;;15.50;6.70;;;;;;;13.74;69.73;99805.33;106709;1303;22180;-45
2022/10/09 08:20:39;;;;;;;13.40;6.60;;;;;;;13.79;69.55;99798.12;106615;1300;138310;-45
2022/10/09 08:23:06;;;;;;;;;;;;;;;13.83;69.95;99797.70;106710;1306;22363;-44
2022/10/09 08:25:34;;;;;;;112.60;82.90;;;;;;;13.88;69.25;99802.34;106613;1303;124703;-44
2022/10/09 08:28:01;;;;;;;83.20;51.20;;;;;;;13.92;68.82;99800.21;106687;1304;22961;-44
2022/10/09 08:30:28;;;;;;;17.40;10.50;;;;;;;13.97;68.54;99800.66;106633;1303;22130;-44
2022/10/09 08:32:54;;;;;;;;;;;;;;;14.01;68.11;99795.38;106616;1306;138446;-44
2022/10/09 08:35:21;;;;;;;11.70;6.40;;;;;;;14.06;68.01;99793.91;106746;1303;22221;-44
2022/10/09 08:37:48;;;;;;;;;;;;;;;14.11;68.00;99790.14;106635;1303;139194;-45
2022/10/09 08:40:19;;;;;;;9.30;5.20;;;;;;;14.16;67.84;99787.22;106710;1303;22241;-44
2022/10/09 08:42:53;;;;;;;10.80;5.40;;;;;;;14.23;67.47;99779.39;106506;1306;23341;-44
2022/10/09 08:45:20;;;;;;;19.20;5.90;;;;;;;14.33;66.97;99774.27;106478;1305;138259;-45
2022/10/09 08:47:49;;;;;;;9.20;4.20;;;;;;;14.43;66.39;99767.26;106751;1302;22155;-44
2022/10/09 08:50:36;;;;;;;7.40;4.50;;;;;;;14.54;65.59;99761.98;106558;1304;138908;-44
2022/10/09 08:53:30;;;;;;;7.60;4.50;;;;;;;14.64;65.02;99758.77;106533;1306;22118;-45
2022/10/09 08:55:57;;;;;;;6.30;4.20;;;;;;;14.73;64.67;99745.02;106478;1297;137420;-44
2022/10/09 08:58:25;;;;;;;10.40;4.60;;;;;;;14.83;64.33;99742.36;106584;1303;22106;-45
2022/10/09 09:00:53;;;;;;;13.30;8.60;;;;;;;14.92;63.87;99751.20;106674;1304;22176;-45
2022/10/09 09:03:45;;;;;;;99.20;64.30;;;;;;;15.01;63.43;99763.57;106457;1305;139394;-45
2022/10/09 09:06:24;;;;;;;30.00;16.50;;;;;;;15.11;63.07;99769.73;106689;1304;22172;-44
2022/10/09 09:09:00;;;;;;;12.60;6.10;;;;;;;15.19;62.96;99765.29;106447;1305;138712;-45
2022/10/09 09:11:33;;;;;;;12.20;6.10;;;;;;;15.28;62.69;99763.61;106661;1289;22121;-44
2022/10/09 09:14:39;;;;;;;8.90;4.70;;;;;;;15.34;62.37;99764.55;106573;1303;139284;-44
2022/10/09 09:17:12;;;;;;;11.40;4.60;;;;;;;15.40;61.36;99765.35;106668;1303;22174;-44
2022/10/09 09:19:49;;;;;;;10.10;5.70;;;;;;;15.43;61.22;99757.70;106620;1301;139178;-44
2022/10/09 09:22:17;;;;;;;8.90;5.60;;;;;;;15.46;61.39;99755.95;106698;1302;22101;-44
2022/10/09 09:24:53;;;;;;;9.40;5.00;;;;;;;15.49;61.41;99754.45;106480;1294;22334;-44
2022/10/09 09:27:22;;;;;;;6.50;4.00;;;;;;;15.53;60.65;99753.13;106551;1288;137812;-44
2022/10/09 09:30:04;;;;;;;9.80;5.30;;;;;;;15.56;60.12;99749.52;106566;1290;22879;-44
2022/10/09 09:32:31;;;;;;;13.70;8.10;;;;;;;15.59;59.91;99752.17;106479;1305;139943;-44
2022/10/09 09:35:14;;;;;;;11.30;5.30;;;;;;;15.63;60.08;99749.56;106666;1303;22160;-44
2022/10/09 09:37:41;;;;;;;18.70;9.60;;;;;;;15.68;59.94;99751.73;106440;1303;138306;-45
2022/10/09 09:40:13;;;;;;;45.50;30.00;;;;;;;15.72;59.73;99746.27;104807;1293;23653;-44
2022/10/09 09:43:01;;;;;;;76.90;49.40;;;;;;;15.76;59.38;99745.95;106673;1303;22168;-44
2022/10/09 09:45:30;;;;;;;15.50;11.50;;;;;;;15.79;59.49;99744.17;106400;1296;137624;-44
2022/10/09 09:48:00;;;;;;;11.00;6.20;;;;;;;15.85;59.61;99742.16;106570;1302;23020;-44
2022/10/09 09:50:41;;;;;;;8.80;5.20;;;;;;;15.91;59.47;99744.52;106491;1303;137745;-44
2022/10/09 09:53:39;;;;;;;9.70;5.40;;;;;;;15.99;58.63;99747.33;106585;1289;22324;-44
2022/10/09 09:56:06;;;;;;;8.00;4.80;;;;;;;16.05;58.75;99743.41;106497;1302;137493;-44
2022/10/09 09:59:02;;;;;;;9.30;4.70;;;;;;;16.10;58.77;99740.56;106702;1302;22175;-44
2022/10/09 10:01:29;;;;;;;9.10;4.60;;;;;;;16.18;58.56;99743.61;106167;1309;22187;-44
2022/10/09 10:03:58;;;;;;;9.70;4.90;;;;;;;16.24;58.45;99743.45;106314;1308;22896;-45
2022/10/09 10:06:42;;;;;;;8.30;5.40;;;;;;;16.29;58.52;99745.33;106264;1309;22167;-44
2022/10/09 10:09:13;;;;;;;7.30;5.20;;;;;;;16.33;58.67;99741.65;106117;1309;137268;-44
2022/10/09 10:11:47;;;;;;;9.00;4.50;;;;;;;16.37;58.54;99741.52;106303;1309;22239;-44
2022/10/09 10:14:14;;;;;;;7.70;4.40;;;;;;;16.41;57.98;99741.09;106199;1308;139243;-44
2022/10/09 10:16:41;;;;;;;6.90;3.50;;;;;;;16.45;57.92;99740.65;106296;1294;23076;-44
2022/10/09 10:19:26;;;;;;;11.00;3.40;;;;;;;16.50;57.31;99736.73;106115;1308;22265;-44
2022/10/09 10:22:06;;;;;;;4.60;4.00;;;;;;;16.57;57.64;99737.13;106185;1308;138188;-44
2022/10/09 10:24:43;;;;;;;8.10;3.60;;;;;;;16.62;57.24;99740.30;106244;1308;22199;-44
2022/10/09 10:27:18;;;;;;;6.10;3.50;;;;;;;16.67;57.48;99740.11;106059;1308;137486;-44
2022/10/09 10:29:46;;;;;;;436.90;355.30;;;;;;;16.70;57.03;99739.36;106120;1307;22151;-44
2022/10/09 10:32:20;;;;;;;90.30;58.40;;;;;;;16.72;57.15;99734.84;106003;1310;139210;-44
2022/10/09 10:34:50;;;;;;;25.70;16.10;;;;;;;16.72;57.20;99734.13;106285;1308;22163;-44
2022/10/09 10:37:41;;;;;;;15.20;6.70;;;;;;;16.70;57.08;99729.69;106228;1309;22151;-44
2022/10/09 10:40:19;;;;;;;10.50;4.80;;;;;;;16.66;56.93;99722.73;106665;1303;22928;-44
2022/10/09 10:42:52;;;;;;;7.80;3.90;;;;;;;16.66;56.92;99727.64;106580;1305;22351;-45
2022/10/09 10:45:43;;;;;;;5.80;3.60;;;;;;;16.62;57.14;99722.77;106568;1302;137962;-45
2022/10/09 10:48:40;;;;;;;11.30;5.30;;;;;;;16.57;56.69;99721.44;106688;1296;23051;-45
2022/10/09 10:51:23;;;;;;;10.90;4.20;;;;;;;16.52;56.09;99719.95;106641;1300;138916;-45
2022/10/09 10:54:15;;;;;;;7.10;4.40;;;;;;;16.46;56.01;99716.65;106733;1303;22114;-45
2022/10/09 10:56:55;;;;;;;9.00;4.70;;;;;;;16.40;56.27;99712.98;106473;1289;137977;-46
2022/10/09 10:59:31;;;;;;;9.30;4.70;;;;;;;16.35;56.46;99717.42;106604;1296;22145;-45
2022/10/09 11:02:07;;;;;;;9.00;4.90;;;;;;;16.30;56.68;99717.94;106572;1302;139079;-45
2022/10/09 11:04:40;;;;;;;9.00;5.00;;;;;;;16.25;57.06;99720.23;106610;1305;22123;-45
2022/10/09 11:07:19;;;;;;;86.40;65.60;;;;;;;16.21;57.57;99719.72;106667;1297;22129;-45
2022/10/09 11:10:07;;;;;;;47.40;31.60;;;;;;;16.18;58.04;99718.58;106595;1289;138124;-44
2022/10/09 11:12:48;;;;;;;13.40;9.00;;;;;;;16.16;58.42;99717.46;106705;1302;22174;-45
2022/10/09 11:15:36;;;;;;;9.00;6.40;;;;;;;16.14;58.41;99712.94;106586;1288;138057;-46
2022/10/09 11:18:07;;;;;;;13.80;7.50;;;;;;;16.13;58.64;99714.31;106521;1297;22223;-45
2022/10/09 11:20:43;;;;;;;10.20;7.00;;;;;;;16.12;59.39;99710.31;106578;1289;138814;-45
2022/10/09 11:23:20;;;;;;;14.90;6.90;;;;;;;16.12;59.76;99711.52;106591;1303;22201;-45
2022/10/09 11:25:52;;;;;;;10.90;5.40;;;;;;;16.14;59.78;99710.41;106536;1291;138230;-46
2022/10/09 11:28:25;;;;;;;14.90;7.90;;;;;;;16.16;59.82;99706.79;106577;1291;22149;-46
2022/10/09 11:30:56;;;;;;;12.80;8.50;;;;;;;16.19;59.65;99702.85;106725;1296;22219;-45
2022/10/09 11:33:28;;;;;;;85.30;58.00;;;;;;;16.21;59.47;99704.65;106611;1303;138756;-46
2022/10/09 11:35:56;;;;;;;12.40;9.00;;;;;;;16.28;59.41;99704.81;106696;1303;22204;-45
2022/10/09 11:38:28;;;;;;;8.40;5.90;;;;;;;16.34;58.39;99705.23;106596;1302;139682;-44
2022/10/09 11:40:55;;;;;;;11.70;5.90;;;;;;;16.42;58.80;99704.51;103140;1304;24311;-45